createdAt,value
2023-01-09T00:04:31.197Z,-0.69
2023-01-09T00:09:33.824Z,-0.83
2023-01-09T00:14:36.482Z,-0.75
2023-01-09T00:19:39.304Z,-0.73
2023-01-09T00:24:41.973Z,-1.24
2023-01-09T00:29:48.016Z,-1.15
2023-01-09T00:34:51.064Z,-1.22
2023-01-09T00:39:53.858Z,-1.17
2023-01-09T00:44:59.407Z,-1.26
2023-01-09T00:50:07.681Z,-1.33
2023-01-09T00:55:10.877Z,-1.37
2023-01-09T01:00:15.486Z,-1.46
2023-01-09T01:05:36.739Z,-1.50
2023-01-09T01:10:39.963Z,-1.57
2023-01-09T01:15:43.617Z,-1.69
2023-01-09T01:20:46.412Z,-1.89
2023-01-09T01:25:49.641Z,-2.21
2023-01-09T01:30:52.402Z,-2.59
2023-01-09T01:36:05.700Z,-3.21
2023-01-09T01:41:08.464Z,-3.63
2023-01-09T01:46:11.305Z,-4.02
2023-01-09T01:51:17.281Z,-4.10
2023-01-09T01:56:43.661Z,-4.26
2023-01-09T02:01:52.687Z,-4.55
2023-01-09T02:06:57.235Z,-4.68
2023-01-09T02:12:01.306Z,-4.99
2023-01-09T02:17:06.593Z,-5.22
2023-01-09T02:22:18.061Z,-5.49
2023-01-09T02:27:20.691Z,-5.43
2023-01-09T02:32:38.339Z,-5.60
2023-01-09T02:37:59.099Z,-6.02
2023-01-09T02:43:03.000Z,-6.32
2023-01-09T02:48:05.951Z,-6.59
2023-01-09T02:53:34.416Z,-6.87
2023-01-09T02:58:57.085Z,-7.18
2023-01-09T03:04:21.734Z,-7.94
2023-01-09T03:09:28.023Z,-8.12
2023-01-09T03:14:32.718Z,-8.38
2023-01-09T03:19:36.135Z,-8.95
2023-01-09T03:24:39.342Z,-9.46
2023-01-09T03:29:42.105Z,-9.56
2023-01-09T03:34:44.784Z,-9.69
2023-01-09T03:39:47.601Z,-10.15
2023-01-09T03:44:51.277Z,-10.61
2023-01-09T03:49:53.990Z,-10.96
2023-01-09T03:54:56.606Z,-11.55
2023-01-09T03:59:59.280Z,-11.92
2023-01-09T04:05:02.151Z,-12.30
2023-01-09T04:10:05.809Z,-12.55
2023-01-09T04:15:08.850Z,-12.73
2023-01-09T04:20:12.198Z,-12.90
2023-01-09T04:25:14.900Z,-12.93
2023-01-09T04:30:18.000Z,-12.96
2023-01-09T04:35:21.089Z,-12.42
2023-01-09T04:40:23.809Z,-11.80
2023-01-09T04:45:26.497Z,-11.79
2023-01-09T04:50:31.270Z,-12.14
2023-01-09T04:55:34.226Z,-12.54
2023-01-09T05:00:37.375Z,-13.17
2023-01-09T05:05:40.411Z,-13.72
2023-01-09T05:10:43.095Z,-14.21
2023-01-09T05:15:45.808Z,-14.31
2023-01-09T05:20:48.620Z,-14.50
2023-01-09T05:25:51.335Z,-14.96
2023-01-09T05:30:54.061Z,-15.25
2023-01-09T05:35:56.740Z,-15.31
2023-01-09T05:40:59.514Z,-15.36
2023-01-09T05:46:02.458Z,-15.36
2023-01-09T05:51:05.374Z,-15.45
2023-01-09T05:56:08.138Z,-15.44
2023-01-09T06:01:10.913Z,-15.55
2023-01-09T06:06:13.893Z,-15.56
2023-01-09T06:11:16.794Z,-15.37
2023-01-09T06:16:19.501Z,-15.31
2023-01-09T06:21:22.231Z,-15.44
2023-01-09T06:26:26.192Z,-15.26
2023-01-09T06:31:29.193Z,-15.33
2023-01-09T06:36:31.934Z,-15.33
2023-01-09T06:41:34.622Z,-15.25
2023-01-09T06:46:37.301Z,-15.16
2023-01-09T06:51:40.063Z,-15.17
2023-01-09T06:56:42.793Z,-15.06
2023-01-09T07:01:45.575Z,-15.11
2023-01-09T07:06:49.496Z,-15.16
2023-01-09T07:11:52.250Z,-15.19
2023-01-09T07:16:55.071Z,-15.32
2023-01-09T07:21:57.925Z,-15.85
2023-01-09T07:27:00.770Z,-16.01
2023-01-09T07:32:03.981Z,-16.23
2023-01-09T07:37:06.502Z,-16.44
2023-01-09T07:42:09.136Z,-16.93
2023-01-09T07:47:12.304Z,-16.68
2023-01-09T07:52:15.311Z,-16.81
2023-01-09T07:57:17.956Z,-17.15
2023-01-09T08:02:20.835Z,-17.32
2023-01-09T08:07:23.625Z,-17.68
2023-01-09T08:12:26.425Z,-17.70
2023-01-09T08:17:29.088Z,-17.78
2023-01-09T08:22:31.811Z,-18.05
2023-01-09T08:27:34.619Z,-18.25
2023-01-09T08:32:37.902Z,-18.24
2023-01-09T08:37:44.666Z,-18.43
2023-01-09T08:43:05.837Z,-18.46
2023-01-09T08:48:08.703Z,-18.57
2023-01-09T08:53:11.933Z,-18.61
2023-01-09T08:58:14.893Z,-18.80
2023-01-09T09:03:18.060Z,-19.06
2023-01-09T09:08:20.729Z,-19.22
2023-01-09T09:13:23.624Z,-19.49
2023-01-09T09:18:26.566Z,-19.43
2023-01-09T09:23:29.349Z,-19.68
2023-01-09T09:28:32.114Z,-19.81
2023-01-09T09:33:34.777Z,-20.01
2023-01-09T09:38:37.505Z,-20.13
2023-01-09T09:44:07.228Z,-20.32
2023-01-09T09:49:17.779Z,-20.59
2023-01-09T09:54:26.558Z,-20.56
2023-01-09T09:59:33.694Z,-20.78
2023-01-09T10:04:41.717Z,-20.66
2023-01-09T10:09:55.747Z,-20.43
2023-01-09T10:15:01.339Z,-20.44
2023-01-09T10:20:31.559Z,-20.61
2023-01-09T10:25:46.177Z,-20.69
2023-01-09T10:31:09.434Z,-21.01
2023-01-09T10:36:24.778Z,-21.20
2023-01-09T10:42:05.029Z,-21.18
2023-01-09T10:47:27.180Z,-21.25
2023-01-09T10:52:35.159Z,-21.28
2023-01-09T10:57:46.035Z,-21.41
2023-01-09T11:02:49.225Z,-21.49
2023-01-09T11:07:57.902Z,-21.66
2023-01-09T11:13:23.593Z,-21.50
2023-01-09T11:18:26.575Z,-21.59
2023-01-09T11:23:33.807Z,-21.79
2023-01-09T11:28:36.545Z,-21.85
2023-01-09T11:33:44.179Z,-21.85
2023-01-09T11:38:58.135Z,-21.77
2023-01-09T11:44:01.187Z,-21.64
2023-01-09T11:49:23.206Z,-21.84
2023-01-09T11:54:32.216Z,-21.55
2023-01-09T11:59:34.968Z,-21.46
2023-01-09T12:04:56.454Z,-21.58
2023-01-09T12:10:11.240Z,-21.63
2023-01-09T12:15:48.836Z,-21.69
2023-01-09T12:21:03.482Z,-21.70
2023-01-09T12:26:25.910Z,-21.75
2023-01-09T12:31:42.740Z,-21.83
2023-01-09T12:37:11.696Z,-21.83
2023-01-09T12:42:37.787Z,-21.94
2023-01-09T12:47:50.641Z,-21.87
2023-01-09T12:53:27.911Z,-21.99
2023-01-09T12:58:40.174Z,-22.14
2023-01-09T13:03:50.854Z,-22.32
2023-01-09T13:09:17.044Z,-22.26
2023-01-09T13:14:38.071Z,-22.47
2023-01-09T13:19:40.964Z,-22.73
2023-01-09T13:25:04.366Z,-22.91
2023-01-09T13:30:15.999Z,-23.01
2023-01-09T13:35:18.512Z,-23.07
2023-01-09T13:40:21.171Z,-23.19
2023-01-09T13:45:28.779Z,-23.20
2023-01-09T13:50:31.679Z,-23.40
2023-01-09T13:55:36.417Z,-23.48
2023-01-09T14:00:39.279Z,-23.31
2023-01-09T14:05:42.058Z,-23.50
2023-01-09T14:10:44.688Z,-23.72
2023-01-09T14:15:49.940Z,-23.86
2023-01-09T14:26:24.239Z,-24.04
2023-01-09T14:31:32.890Z,-24.02
2023-01-09T14:36:36.532Z,-24.29
2023-01-09T14:42:02.832Z,-24.29
2023-01-09T14:47:11.230Z,-24.23
2023-01-09T14:52:24.488Z,-24.57
2023-01-09T14:57:28.569Z,-24.63
2023-01-09T15:02:34.744Z,-24.58
2023-01-09T15:07:44.783Z,-24.67
2023-01-09T15:12:48.695Z,-24.72
2023-01-09T15:18:13.641Z,-24.62
2023-01-09T15:23:30.794Z,-24.61
2023-01-09T15:28:33.603Z,-24.74
2023-01-09T15:33:39.496Z,-24.94
2023-01-09T15:38:43.024Z,-24.72
2023-01-09T15:43:46.293Z,-24.77
2023-01-09T15:48:54.232Z,-24.76
2023-01-09T15:53:58.953Z,-24.77
2023-01-09T15:59:02.083Z,-25.24
2023-01-09T16:04:07.821Z,-25.07
2023-01-09T16:09:21.459Z,-25.00
2023-01-09T16:14:25.591Z,-24.94
2023-01-09T16:19:58.499Z,-24.93
2023-01-09T16:25:22.327Z,-25.11
2023-01-09T16:30:28.449Z,-25.21
2023-01-09T16:35:31.326Z,-25.43
2023-01-09T16:40:36.487Z,-25.26
2023-01-09T16:45:42.720Z,-25.38
2023-01-09T16:50:45.702Z,-25.49
2023-01-09T16:55:48.688Z,-25.58
2023-01-09T17:00:51.702Z,-25.55
2023-01-09T17:06:00.614Z,-25.55
2023-01-09T17:11:04.379Z,-25.60
2023-01-09T17:16:07.764Z,-25.80
2023-01-09T17:21:16.833Z,-25.99
2023-01-09T17:26:40.384Z,-26.11
2023-01-09T17:31:42.998Z,-26.07
2023-01-09T17:36:45.916Z,-25.87
2023-01-09T17:41:48.866Z,-25.96
2023-01-09T17:46:51.598Z,-25.98
2023-01-09T17:51:54.402Z,-26.02
2023-01-09T17:56:57.193Z,-26.15
2023-01-09T18:01:59.918Z,-26.26
2023-01-09T18:07:02.769Z,-26.23
2023-01-09T18:12:05.577Z,-26.34
2023-01-09T18:17:10.400Z,-26.46
2023-01-09T18:22:13.193Z,-26.60
2023-01-09T18:27:16.002Z,-26.59
2023-01-09T18:32:18.862Z,-26.53
2023-01-09T18:37:21.670Z,-26.69
2023-01-09T18:42:24.401Z,-26.70
2023-01-09T18:47:27.124Z,-26.56
2023-01-09T18:52:29.877Z,-26.49
2023-01-09T18:57:32.930Z,-26.51
2023-01-09T19:02:35.647Z,-26.37
2023-01-09T19:07:38.408Z,-26.35
2023-01-09T19:12:41.332Z,-26.31
2023-01-09T19:17:43.948Z,-26.25
2023-01-09T19:22:46.639Z,-26.57
2023-01-09T19:27:49.298Z,-26.72
2023-01-09T19:32:52.272Z,-26.60
2023-01-09T19:37:54.945Z,-26.61
2023-01-09T19:42:58.790Z,-26.76
2023-01-09T19:48:01.581Z,-26.79
2023-01-09T19:53:04.297Z,-26.95
2023-01-09T19:58:07.255Z,-26.83
2023-01-09T20:03:09.929Z,-26.96
2023-01-09T20:08:12.615Z,-26.97
2023-01-09T20:13:15.364Z,-26.96
2023-01-09T20:18:18.053Z,-27.13
2023-01-09T20:23:23.410Z,-27.23
2023-01-09T20:28:26.896Z,-27.38
2023-01-09T20:33:29.571Z,-27.61
2023-01-09T20:38:33.533Z,-27.50
2023-01-09T20:43:36.553Z,-27.65
2023-01-09T20:48:39.305Z,-27.63
2023-01-09T20:53:46.455Z,-27.74
2023-01-09T20:58:49.271Z,-27.61
2023-01-09T21:03:53.538Z,-27.56
2023-01-09T21:08:56.551Z,-27.63
2023-01-09T21:14:00.201Z,-27.79
2023-01-09T21:19:02.868Z,-27.97
2023-01-09T21:24:07.903Z,-28.15
2023-01-09T21:29:13.372Z,-28.18
2023-01-09T21:34:20.325Z,-28.36
2023-01-09T21:39:22.979Z,-28.49
2023-01-09T21:44:43.921Z,-28.57
2023-01-09T21:49:46.683Z,-28.39
2023-01-09T21:54:49.447Z,-28.23
2023-01-09T21:59:52.145Z,-28.28
2023-01-09T22:05:00.428Z,-28.26
2023-01-09T22:10:03.239Z,-28.13
2023-01-09T22:15:06.865Z,-28.06
2023-01-09T22:20:10.460Z,-28.12
2023-01-09T22:25:13.179Z,-28.42
2023-01-09T22:30:16.125Z,-28.68
2023-01-09T22:35:18.739Z,-28.65
2023-01-09T22:40:21.449Z,-28.81
2023-01-09T22:45:24.233Z,-28.94
2023-01-09T22:50:26.917Z,-28.96
2023-01-09T22:55:29.629Z,-28.92
2023-01-09T23:00:32.887Z,-28.84
2023-01-09T23:05:35.557Z,-28.90
2023-01-09T23:10:38.629Z,-29.04
2023-01-09T23:15:41.392Z,-29.01
2023-01-09T23:20:58.513Z,-29.00
2023-01-09T23:26:05.203Z,-29.11
2023-01-09T23:31:07.879Z,-29.14
2023-01-09T23:36:10.677Z,-29.20
2023-01-09T23:41:13.435Z,-29.24
2023-01-09T23:46:16.261Z,-29.26
2023-01-09T23:51:19.336Z,-29.34
2023-01-09T23:56:22.060Z,-29.49
